Flight Track Log - Related Links

Times and Time Zones

All times are in EDT time to prevent confusion due to time zone crossing. See the UAL4846 flight status page for this flight to view local times or setup timezone preferences in your user account.

Time Position Orientation Groundspeed Altitude Reporting Facility
EDT Latitude Longitude Course Direction KTS MPH feet Rate Location/Type
Sun 11:18:21 AM 43.1036 -77.6914 124° Southeast 137 158 1,000  Level Cleveland Center
Sun 11:19:10 AM 43.0758 -77.6728 154° Southeast 177 204 2,100 1,541 Climbing Cleveland Center
Sun 11:19:35 AM 43.0689 -77.6444 109° East 179 206 2,900 1,455 Climbing Cleveland Center
Sun 11:20:16 AM 43.0492 -77.6000 121° Southeast 187 215 3,700 1,100 Climbing Cleveland Center
Sun 11:20:35 AM 43.0489 -77.5917 93° East 198 228 4,000 1,139 Climbing Cleveland Center
Sun 11:21:35 AM 43.0242 -77.5189 115° Southeast 203 234 5,200 1,350 Climbing Cleveland Center
Sun 11:22:35 AM 42.9950 -77.4494 120° Southeast 203 234 6,700 1,450 Climbing Cleveland Center
Sun 11:23:00 AM 42.8589 -77.0843 124° Southeast  Level FlightAware
Sun 11:23:35 AM 42.9703 -77.3797 116° Southeast 203 234 8,100  Level Cleveland Center
Sun 11:24:35 AM 42.9411 -77.3103 120° Southeast 203 234 9,300 1,179 Climbing Cleveland Center
Sun 11:26:23 AM 42.8900 -77.1644 116° Southeast 228 262 11,400 1,172 Climbing New Center
Sun 11:27:24 AM 42.8572 -77.0792 118° Southeast 240 276 12,600 857 Climbing New Center
Sun 11:28:22 AM 42.8222 -76.9908 118° Southeast 258 297 13,100 254 Climbing New Center
Sun 11:29:22 AM 42.7797 -76.8881 119° Southeast 287 330 13,100  Level New Center
Sun 11:30:22 AM 42.7328 -76.7847 122° Southeast 309 356 13,100  Level New Center
Sun 11:31:24 AM 42.6842 -76.6761 121° Southeast 321 369 13,100  Level New Center
Sun 11:32:22 AM 42.6375 -76.5703 121° Southeast 326 375 13,100  Level New Center
Sun 11:33:22 AM 42.5906 -76.4647 121° Southeast 331 381 13,100  Level New Center
Sun 11:33:37 AM 42.5719 -76.4328 128° Southeast 343 395 13,100  Level Boston Center
Sun 11:34:38 AM 42.5317 -76.3372 120° Southeast 332 382 13,100  Level Boston Center
Sun 11:35:51 AM 42.4831 -76.2300 122° Southeast 332 382 13,100  Level Boston Center
Sun 11:36:51 AM 42.4267 -76.1056 122° Southeast 332 382 13,100  Level Boston Center
Sun 11:38:00 AM 42.3797 -76.0044 122° Southeast 332 382 13,100  Level Boston Center
Sun 11:39:01 AM 42.3214 -75.8744 121° Southeast 327 376 13,100  Level Boston Center
Sun 11:40:02 AM 42.2686 -75.7539 121° Southeast 332 382 13,100  Level Boston Center
Sun 11:41:02 AM 42.2217 -75.6503 121° Southeast 332 382 13,100  Level Boston Center
Sun 11:42:03 AM 42.1722 -75.5469 123° Southeast 332 382 13,100 -50 Level Boston Center
Sun 11:43:01 AM 42.1231 -75.4436 123° Southeast 332 382 13,000 -51 Descending Boston Center
Sun 11:44:01 AM 42.0736 -75.3378 122° Southeast 332 382 13,000  Level Boston Center
Sun 11:45:01 AM 42.0306 -75.2297 118° Southeast 332 382 13,000  Level Boston Center
Sun 11:46:03 AM 41.9894 -75.1189 116° Southeast 327 376 13,000  Level Boston Center
Sun 11:47:03 AM 41.9522 -75.0194 117° Southeast 332 382 13,000  Level Boston Center
Sun 11:48:01 AM 41.9047 -74.9006 118° Southeast 332 382 13,000  Level Boston Center
Sun 11:49:01 AM 41.8633 -74.7900 117° Southeast 332 382 13,000 -250 Level Boston Center
Sun 11:50:01 AM 41.8217 -74.6828 118° Southeast 332 382 12,500 -496 Descending Boston Center
Sun 11:51:02 AM 41.7781 -74.5697 117° Southeast 332 382 12,000 -1,150 Descending Boston Center
Sun 11:52:01 AM 41.6992 -74.5450 167° South 286 329 10,200 -1,714 Descending Boston Center
Sun 11:53:01 AM 41.6386 -74.5511 184° South 264 304 8,600 -1,091 Descending Boston Center
Sun 11:54:02 AM 41.5550 -74.5650 187° South 254 292 8,000 -627 Descending Boston Center
Sun 11:55:15 AM 41.4839 -74.5794 189° South 254 292 7,200 -857 Descending Boston Center
Sun 11:56:15 AM 41.4022 -74.5961 189° South 259 298 6,100 -554 Descending Boston Center
Sun 11:57:25 AM 41.3333 -74.6167 193° South 238 274 6,000 -46 Descending New TRACON
Sun 11:58:25 AM 41.2667 -74.6500 201° Southwest 244 281 6,000  Level New TRACON
Sun 11:59:25 AM 41.2000 -74.6667 191° South 244 281 6,000 -50 Level New TRACON
Sun 12:00:25 PM 41.1333 -74.7000 201° Southwest 238 274 5,900 -300 Descending New TRACON
Sun 12:01:25 PM 41.0833 -74.6500 143° Southeast 251 289 5,400 -450 Descending New TRACON
Sun 12:02:25 PM 41.0500 -74.5667 118° Southeast 255 293 5,000 -200 Descending New TRACON
Sun 12:03:25 PM 41.0167 -74.4833 118° Southeast 257 296 5,000  Level New TRACON
Sun 12:04:27 PM 41.0000 -74.4000 105° East 257 296 5,000  Level New TRACON
Sun 12:05:25 PM 41.0000 -74.3000 90° East 244 281 5,000 -161 Level New TRACON
Sun 12:06:19 PM 40.9833 -74.2333 108° East 242 278 4,700 -500 Descending New TRACON
Sun 12:07:25 PM 40.9667 -74.1333 102° East 226 260 4,000 -350 Descending New TRACON
Sun 12:08:19 PM 40.9167 -74.1000 153° Southeast 193 222 4,000 -500 Level New TRACON
Sun 12:09:25 PM 40.8667 -74.0833 166° South 194 223 3,000 -550 Descending New TRACON
Sun 12:10:19 PM 40.8167 -74.0667 166° South 183 211 2,900 -263 Descending New TRACON
Sun 12:11:19 PM 40.7667 -74.0833 194° South 183 211 2,500 -600 Descending New TRACON
Sun 12:12:19 PM 40.7167 -74.0833 180° South 168 193 1,700 -800 Descending New TRACON
Sun 12:13:19 PM 40.7000 -74.1167 237° Southwest 126 145 900 -800 Descending New TRACON
Sun 12:15:00 PM 40.6833 -74.1667 203° Southwest  Level FlightAware
Sun 12:22:00 PM 40.6925 -74.1687 203° Southwest  Level Estimated

Login

Don't have an account? Register now (free) for customized features, flight alerts, and more!